createdAt,value
2022-08-29T00:04:52.147Z,99.90
2022-08-29T00:09:55.208Z,99.90
2022-08-29T00:14:57.983Z,99.90
2022-08-29T00:20:00.994Z,99.90
2022-08-29T00:25:06.001Z,99.90
2022-08-29T00:30:10.067Z,99.90
2022-08-29T00:35:16.244Z,99.90
2022-08-29T00:40:27.769Z,99.90
2022-08-29T00:45:31.407Z,99.90
2022-08-29T00:50:40.238Z,99.90
2022-08-29T00:55:44.728Z,99.90
2022-08-29T01:00:54.052Z,99.90
2022-08-29T01:05:57.082Z,99.90
2022-08-29T01:11:18.649Z,99.90
2022-08-29T01:16:22.213Z,99.90
2022-08-29T01:21:30.298Z,99.90
2022-08-29T01:26:33.682Z,99.90
2022-08-29T01:31:56.985Z,99.90
2022-08-29T01:37:06.257Z,99.90
2022-08-29T01:42:16.059Z,99.90
2022-08-29T01:47:19.719Z,99.90
2022-08-29T01:52:22.638Z,99.90
2022-08-29T01:57:25.740Z,99.90
2022-08-29T02:02:30.077Z,99.90
2022-08-29T02:07:32.959Z,99.90
2022-08-29T02:12:36.257Z,99.90
2022-08-29T02:17:39.304Z,99.90
2022-08-29T02:22:42.548Z,99.90
2022-08-29T02:27:45.861Z,99.90
2022-08-29T02:32:49.059Z,99.90
2022-08-29T02:37:52.158Z,99.90
2022-08-29T02:42:55.929Z,99.90
2022-08-29T02:47:59.289Z,99.90
2022-08-29T02:53:02.683Z,99.90
2022-08-29T02:58:06.645Z,99.90
2022-08-29T03:03:09.715Z,99.90
2022-08-29T03:08:16.778Z,99.90
2022-08-29T03:13:20.524Z,99.90
2022-08-29T03:18:23.434Z,99.90
2022-08-29T03:23:26.167Z,99.90
2022-08-29T03:28:29.659Z,99.90
2022-08-29T03:33:32.583Z,99.90
2022-08-29T03:38:36.034Z,99.90
2022-08-29T03:43:39.030Z,99.90
2022-08-29T03:48:41.819Z,99.90
2022-08-29T03:53:45.018Z,99.90
2022-08-29T03:58:53.315Z,99.90
2022-08-29T04:03:57.622Z,99.90
2022-08-29T04:09:01.936Z,99.90
2022-08-29T04:14:04.808Z,99.90
2022-08-29T04:19:08.945Z,99.90
2022-08-29T04:24:13.109Z,99.90
2022-08-29T04:29:16.048Z,99.90
2022-08-29T04:34:21.035Z,99.90
2022-08-29T04:39:23.874Z,99.90
2022-08-29T04:44:26.651Z,99.90
2022-08-29T04:49:29.513Z,99.90
2022-08-29T04:54:32.440Z,99.90
2022-08-29T04:59:35.930Z,99.90
2022-08-29T05:04:39.199Z,99.90
2022-08-29T05:09:41.999Z,99.90
2022-08-29T05:14:44.787Z,99.90
2022-08-29T05:19:48.199Z,99.90
2022-08-29T05:24:51.339Z,99.90
2022-08-29T05:29:54.241Z,99.90
2022-08-29T05:34:57.919Z,99.90
2022-08-29T05:40:00.815Z,99.90
2022-08-29T05:45:05.219Z,99.90
2022-08-29T05:50:08.737Z,99.90
2022-08-29T05:55:12.049Z,99.90
2022-08-29T06:00:15.426Z,99.90
2022-08-29T06:05:18.420Z,99.90
2022-08-29T06:10:23.170Z,99.90
2022-08-29T06:15:28.792Z,99.90
2022-08-29T06:20:32.133Z,99.90
2022-08-29T06:25:40.059Z,99.90
2022-08-29T06:30:43.272Z,99.90
2022-08-29T06:35:46.200Z,99.90
2022-08-29T06:40:49.108Z,99.90
2022-08-29T06:45:52.150Z,99.90
2022-08-29T06:50:55.528Z,99.90
2022-08-29T06:56:05.342Z,99.90
2022-08-29T07:01:15.472Z,99.90
2022-08-29T07:06:19.146Z,99.90
2022-08-29T07:11:22.876Z,99.90
2022-08-29T07:16:26.406Z,99.90
2022-08-29T07:21:29.648Z,99.90
2022-08-29T07:26:41.616Z,99.90
2022-08-29T07:31:45.764Z,99.90
2022-08-29T07:36:48.777Z,99.90
2022-08-29T07:41:52.330Z,99.90
2022-08-29T07:46:59.831Z,99.90
2022-08-29T07:52:02.984Z,99.90
2022-08-29T07:57:06.136Z,99.90
2022-08-29T08:02:09.248Z,99.90
2022-08-29T08:07:14.021Z,99.90
2022-08-29T08:12:18.349Z,99.90
2022-08-29T08:17:21.660Z,99.90
2022-08-29T08:22:24.822Z,99.90
2022-08-29T08:27:27.950Z,99.90
2022-08-29T08:32:32.475Z,99.90
2022-08-29T08:37:35.840Z,99.90
2022-08-29T08:42:43.917Z,99.90
2022-08-29T08:47:54.311Z,99.90
2022-08-29T08:53:14.406Z,99.90
2022-08-29T08:58:33.349Z,99.90
2022-08-29T09:03:58.229Z,99.90
2022-08-29T09:09:28.838Z,99.90
2022-08-29T09:14:50.548Z,99.90
2022-08-29T09:19:55.173Z,99.90
2022-08-29T09:25:10.896Z,99.90
2022-08-29T09:30:34.473Z,99.90
2022-08-29T09:36:02.574Z,99.90
2022-08-29T09:41:08.590Z,99.90
2022-08-29T09:46:11.665Z,99.90
2022-08-29T09:51:23.471Z,99.90
2022-08-29T09:56:28.271Z,99.90
2022-08-29T10:01:36.627Z,99.90
2022-08-29T10:06:46.288Z,99.90
2022-08-29T10:12:08.129Z,99.90
2022-08-29T10:17:40.310Z,99.90
2022-08-29T10:22:53.030Z,99.90
2022-08-29T10:28:12.179Z,99.90
2022-08-29T10:33:24.260Z,99.90
2022-08-29T10:38:50.319Z,99.90
2022-08-29T10:44:01.955Z,99.90
2022-08-29T10:49:33.880Z,99.90
2022-08-29T10:54:54.881Z,99.90
2022-08-29T11:00:11.649Z,99.90
2022-08-29T11:05:26.917Z,99.90
2022-08-29T11:10:49.972Z,99.90
2022-08-29T11:16:12.420Z,99.90
2022-08-29T11:21:40.183Z,99.90
2022-08-29T11:27:06.144Z,99.90
2022-08-29T11:32:35.980Z,99.90
2022-08-29T11:37:42.030Z,99.90
2022-08-29T11:42:50.500Z,99.90
2022-08-29T11:48:32.373Z,99.90
2022-08-29T11:53:37.960Z,99.90
2022-08-29T11:58:46.992Z,99.90
2022-08-29T12:03:50.182Z,99.90
2022-08-29T12:09:05.238Z,99.90
2022-08-29T12:14:09.132Z,99.90
2022-08-29T12:19:12.298Z,99.90
2022-08-29T12:24:40.350Z,99.90
2022-08-29T12:29:44.938Z,99.90
2022-08-29T12:35:06.229Z,99.90
2022-08-29T12:40:19.269Z,99.90
2022-08-29T12:45:30.610Z,99.90
2022-08-29T12:50:37.012Z,99.90
2022-08-29T12:55:43.757Z,94.30
2022-08-29T13:00:52.991Z,99.60
2022-08-29T13:06:08.844Z,99.90
2022-08-29T13:11:13.214Z,95.30
2022-08-29T13:16:29.673Z,91.20
2022-08-29T13:21:33.940Z,94.50
2022-08-29T13:26:50.415Z,98.70
2022-08-29T13:32:19.770Z,91.00
2022-08-29T13:38:08.549Z,91.40
2022-08-29T13:43:36.067Z,90.00
2022-08-29T13:48:39.460Z,90.90
2022-08-29T13:53:45.555Z,90.60
2022-08-29T13:58:49.109Z,90.80
2022-08-29T14:03:52.759Z,91.60
2022-08-29T14:08:56.641Z,89.60
2022-08-29T14:13:59.460Z,93.40
2022-08-29T14:19:02.284Z,90.60
2022-08-29T14:24:05.244Z,93.20
2022-08-29T14:29:09.145Z,94.00
2022-08-29T14:34:12.241Z,94.80
2022-08-29T14:39:15.432Z,94.30
2022-08-29T14:44:20.405Z,97.40
2022-08-29T14:49:23.480Z,94.20
2022-08-29T14:54:26.424Z,94.60
2022-08-29T14:59:29.580Z,97.30
2022-08-29T15:04:35.637Z,98.60
2022-08-29T15:09:44.290Z,95.60
2022-08-29T15:14:47.260Z,95.60
2022-08-29T15:25:14.849Z,96.30
2022-08-29T15:30:20.452Z,96.80
2022-08-29T15:35:23.393Z,95.70
2022-08-29T15:40:26.703Z,95.50
2022-08-29T15:45:29.683Z,96.60
2022-08-29T15:50:32.931Z,99.90
2022-08-29T15:55:42.424Z,98.30
2022-08-29T16:00:47.180Z,99.50
2022-08-29T16:05:50.090Z,99.50
2022-08-29T16:10:53.200Z,99.90
2022-08-29T16:15:56.904Z,99.90
2022-08-29T16:20:59.969Z,99.90
2022-08-29T16:26:03.019Z,99.90
2022-08-29T16:31:06.960Z,99.90
2022-08-29T16:36:09.946Z,99.90
2022-08-29T16:41:16.220Z,99.90
2022-08-29T16:46:22.454Z,99.90
2022-08-29T16:51:28.012Z,99.90
2022-08-29T16:56:33.056Z,99.90
2022-08-29T17:01:43.274Z,99.90
2022-08-29T17:06:49.642Z,99.90
2022-08-29T17:11:54.243Z,99.90
2022-08-29T17:17:00.825Z,99.90
2022-08-29T17:22:04.730Z,99.90
2022-08-29T17:27:07.658Z,99.90
2022-08-29T17:32:10.959Z,99.90
2022-08-29T17:37:13.843Z,99.90
2022-08-29T17:42:17.011Z,99.90
2022-08-29T17:47:21.999Z,99.90
2022-08-29T17:52:24.887Z,99.90
2022-08-29T17:57:28.358Z,99.90
2022-08-29T18:02:34.419Z,99.90
2022-08-29T18:07:39.651Z,99.90
2022-08-29T18:12:42.901Z,99.90
2022-08-29T18:17:45.941Z,99.90
2022-08-29T18:22:50.019Z,99.90
2022-08-29T18:27:52.900Z,99.90
2022-08-29T18:32:55.720Z,99.90
2022-08-29T18:38:17.238Z,99.90
2022-08-29T18:43:20.323Z,99.90
2022-08-29T18:48:27.687Z,99.90
2022-08-29T18:53:32.334Z,99.90
2022-08-29T18:58:36.189Z,99.90
2022-08-29T19:03:39.671Z,99.90
2022-08-29T19:08:42.875Z,99.90
2022-08-29T19:13:46.791Z,99.90
2022-08-29T19:18:49.780Z,99.90
2022-08-29T19:23:53.328Z,99.90
2022-08-29T19:29:02.680Z,99.90
2022-08-29T19:34:05.610Z,99.90
2022-08-29T19:39:08.914Z,99.90
2022-08-29T19:44:11.938Z,99.90
2022-08-29T19:49:18.078Z,99.90
2022-08-29T19:54:22.460Z,99.90
2022-08-29T19:59:25.674Z,99.90
2022-08-29T20:04:30.237Z,99.90
2022-08-29T20:09:33.196Z,99.90
2022-08-29T20:14:37.381Z,99.90
2022-08-29T20:19:40.541Z,99.90
2022-08-29T20:24:43.363Z,99.90
2022-08-29T20:29:46.247Z,99.90
2022-08-29T20:34:49.080Z,99.90
2022-08-29T20:39:52.248Z,99.90
2022-08-29T20:44:55.938Z,99.90
2022-08-29T20:49:58.770Z,99.90
2022-08-29T20:55:02.756Z,99.90
2022-08-29T21:00:06.080Z,99.90
2022-08-29T21:05:28.768Z,99.90
2022-08-29T21:10:32.429Z,99.90
2022-08-29T21:15:36.350Z,99.90
2022-08-29T21:20:44.746Z,99.90
2022-08-29T21:25:59.359Z,99.90
2022-08-29T21:31:11.388Z,99.90
2022-08-29T21:36:21.064Z,99.90
2022-08-29T21:41:26.272Z,99.90
2022-08-29T21:46:33.214Z,99.90
2022-08-29T21:51:38.347Z,99.90
2022-08-29T21:56:42.309Z,99.90
2022-08-29T22:01:46.816Z,99.90
2022-08-29T22:06:52.765Z,99.90
2022-08-29T22:11:56.386Z,99.90
2022-08-29T22:16:59.236Z,99.90
2022-08-29T22:22:03.291Z,99.90
2022-08-29T22:27:07.880Z,99.90
2022-08-29T22:32:10.604Z,99.90
2022-08-29T22:37:13.372Z,99.90
2022-08-29T22:42:16.144Z,99.90
2022-08-29T22:47:19.328Z,99.90
2022-08-29T22:52:22.119Z,99.90
2022-08-29T22:57:25.082Z,99.90
2022-08-29T23:02:28.148Z,99.90
2022-08-29T23:07:31.219Z,99.90
2022-08-29T23:12:36.326Z,99.90
2022-08-29T23:17:39.443Z,99.90
2022-08-29T23:22:42.940Z,99.90
2022-08-29T23:27:46.170Z,99.90
2022-08-29T23:32:48.972Z,99.90
2022-08-29T23:37:51.613Z,99.90
2022-08-29T23:42:54.257Z,99.90
2022-08-29T23:47:56.990Z,99.90
2022-08-29T23:52:59.673Z,99.90
2022-08-29T23:58:03.052Z,99.90
